Weather observations for the past three days for
La Porte Municipal Airport
Metric (Imperial)
Date Time (cdt) Wind (kph) Vis. (km) Weather Sky Cond. Temperature (ºC) Relative Humidity Wind Chill (°C) Heat Index (°C) Pressure Precipitation (cm)
Air Dwpt 6 hour altimeter (cm) sea level (mb) 1 hr 3 hr 6 hr
Max. Min.
06 04:15 N 13 16.09 Mostly Cloudy BKN065 6 5 93% 4 75.82 0.0
06 03:55 N 11 16.09 Overcast OVC065 6 5 93% 4 75.84 0.0
06 03:35 N 11 16.09 Overcast OVC065 6 5 93% 4 75.84 0.0
06 03:15 N 13 16.09 Mostly Cloudy BKN065 BKN110 7 6 93% 5 75.79 0.0
06 02:55 N 15 16.09 Mostly Cloudy BKN065 7 6 93% 5 75.77 0.0
06 02:35 N 22 16.09 Partly Cloudy SCT065 8 6 87% 5 75.77 0.0
06 02:15 N 15 16.09 Partly Cloudy FEW065 SCT110 7 7 100% 5 75.74 0.0
06 01:55 N 6 16.09 Mostly Cloudy FEW065 BKN110 7 7 100% 75.77 0.0
06 01:35 NW 4 16.09 Partly Cloudy FEW090 SCT110 8 8 100% 75.77 0.0
06 01:15 NW 6 16.09 Overcast BKN090 OVC110 8 8 100% 75.77 0.0
06 00:55 W 2 16.09 Overcast OVC090 8 8 11 8.3 100% 75.77 0.0
06 00:15 N 4 16.09 Mostly Cloudy FEW075 SCT090 BKN120 9 9 100% 75.77 0.0
05 23:55 NW 4 16.09 Overcast BKN075 BKN100 OVC120 9 9 100% 75.79 0.0
05 23:35 SW 4 16.09 Overcast SCT065 OVC075 9 9 100% 75.77 0.0
05 23:15 SW 4 16.09 Overcast OVC075 9 9 100% 75.77 0.0
05 22:55 W 2 16.09 Overcast OVC075 9 8 94% 75.74 0.0
05 22:35 Calm 16.09 Overcast OVC075 9 9 100% 75.74 0.0
05 22:15 S 4 16.09 Overcast OVC075 9 9 100% 75.77 0.0
05 21:55 S 4 16.09 Overcast OVC075 9 9 100% 75.74 0.0
05 21:35 S 2 16.09 Overcast OVC075 10 9 94% 75.74 0.0
05 21:15 SE 4 16.09 Overcast BKN075 BKN085 OVC110 10 6 76% 75.72 0.0
05 20:55 E 4 16.09 Overcast OVC085 10 5 71% 75.72 0.0
05 20:35 E 4 16.09 Overcast OVC085 10 7 82% 75.72 0.0
05 20:15 SE 4 16.09 Overcast OVC095 10 4 67% 75.67 0.0
05 19:55 SE 6 16.09 Overcast OVC095 10 5 71% 75.67 0.0
05 19:35 E 4 16.09 Overcast OVC085 11 4 62% 75.64 0.0
05 19:15 NE 4 16.09 Overcast OVC085 11 3 58% 75.64 0.0
05 18:55 NE 4 16.09 Overcast OVC085 11 3 13.5 10.8 58% 75.64 0.0
05 18:35 E 6 16.09 Overcast OVC085 11 2 54% 75.64 0.0
05 18:15 E 6 16.09 Mostly Cloudy BKN085 11 2 54% 75.67 0.0
05 17:55 E 7 16.09 A Few Clouds FEW095 11 3 58% 75.67 0.0
05 17:35 NE 6 16.09 A Few Clouds FEW095 11 0 47% 75.69 0.0
05 17:15 Vrbl 4 16.09 Fair CLR 11 1 50% 75.69 0.0
05 16:55 N 7 16.09 Fair CLR 11 2 54% 75.69 0.0
05 16:35 N 7 16.09 Fair CLR 11 1 50% 75.69 0.0
05 16:15 N 9 16.09 Fair CLR 11 1 50% 75.69 0.0
05 15:55 NW 9 16.09 Fair CLR 12 1 47% 75.69 0.0
05 15:35 N 7 16.09 Fair CLR 12 2 51% 75.69 0.0
05 15:15 Vrbl 9 16.09 Partly Cloudy FEW075 SCT090 12 1 47% 75.67 0.0
05 14:35 NW 15 16.09 Overcast OVC090 12 1 47% 75.69 0.0
05 14:15 NW 11 16.09 Overcast OVC080 12 0 44% 75.72 0.0
05 13:55 NW 17 16.09 Overcast FEW075 OVC080 12 0 44% 75.74 0.0
05 13:35 NW 11 16.09 Mostly Cloudy FEW075 BKN080 13 2 47% 75.72 0.0
05 13:15 NW 19 G 28 16.09 A Few Clouds FEW075 13 2 47% 75.69 0.0
05 12:55 W 11 16.09 Partly Cloudy SCT085 13 3 12.9 6.4 51% 75.69 0.0
05 12:35 NW 13 16.09 Mostly Cloudy BKN085 12 3 54% 75.69 0.0
05 12:15 NW 13 16.09 Partly Cloudy SCT085 13 4 55% 75.69 0.0
05 11:55 NW 15 16.09 Mostly Cloudy BKN085 12 4 58% 75.69 0.0
05 11:35 NW 9 16.09 Mostly Cloudy BKN085 11 5 67% 75.69 0.0
05 11:15 NW 13 16.09 Fair CLR 10 6 76% 8 75.69 0.0
05 10:55 NW 9 16.09 Fair CLR 9 7 87% 8 75.69 0.0
05 10:35 N 17 16.09 Fair CLR 8 8 100% 6 75.69 0.0
05 10:15 N 11 16.09 Light Rain CLR 7 7 100% 5 75.67 0.0
05 09:55 N 9 16.09 Fair CLR 7 7 100% 5 75.69 0.0 0.03
05 09:35 N 13 16.09 Light Rain CLR 7 7 100% 5 75.72 0.0
05 09:15 NW 15 6.44 Light Rain Fog/Mist FEW065 7 7 100% 5 75.77 0.0
05 08:55 NW 19 14.48 Light Rain BKN065 7 7 100% 4 75.77 0.0
05 08:35 N 19 12.87 Light Rain FEW050 BKN075 OVC085 7 4 81% 4 75.72 0.0
05 08:15 N 24 G 41 16.09 Overcast OVC085 9 0 54% 6 75.64 0.0
05 07:55 NW 22 16.09 Overcast OVC085 9 1 58% 6 75.67 0.0
05 07:35 NW 24 G 39 16.09 Mostly Cloudy BKN085 BKN110 10 1 54% 7 75.62 0.0
05 07:15 N 28 G 37 16.09 Mostly Cloudy SCT085 BKN110 10 1 54% 7 75.54 0.0
05 06:55 NW 30 G 35 16.09 Mostly Cloudy BKN085 BKN110 10 2 14.3 8.8 58% 7 75.57 0.0
05 06:35 N 13 16.09 Mostly Cloudy BKN095 BKN120 9 3 66% 7 75.49 0.0
05 06:15 N 11 16.09 A Few Clouds FEW095 9 3 66% 8 75.46 0.0
05 05:55 N 22 G 31 16.09 Partly Cloudy FEW055 SCT070 SCT090 10 3 62% 7 75.44 0.0
05 05:35 N 20 16.09 Light Rain OVC070 10 3 62% 8 75.49 0.0
05 05:15 N 20 G 33 16.09 Overcast OVC070 11 3 58% 75.49 0.0
05 04:55 NW 19 16.09 Overcast OVC070 11 4 62% 75.46 0.0
05 04:35 NW 19 G 30 16.09 Overcast FEW041 BKN070 OVC090 12 6 67% 75.41 0.0
05 04:15 N 19 16.09 Overcast FEW055 BKN070 OVC090 13 12 94% 75.36 0.0
05 03:55 W 6 16.09 Light Rain FEW030 BKN070 OVC080 13 13 100% 75.34 0.0
05 03:35 SW 6 16.09 Overcast OVC085 13 13 100% 75.31 0.0
05 03:15 SW 15 16.09 Overcast OVC085 13 13 100% 75.31 0.0
05 02:55 SW 11 16.09 Overcast OVC085 13 13 100% 75.29 0.0
05 02:35 SW 11 16.09 Overcast OVC085 13 13 100% 75.29 0.0
05 02:15 SW 9 16.09 Overcast OVC070 13 13 100% 75.26 0.0
05 01:55 SW 11 16.09 Mostly Cloudy BKN070 14 14 100% 75.23 0.0
05 01:35 SW 11 16.09 Mostly Cloudy BKN070 13 13 100% 75.21 0.0
05 01:15 SW 9 16.09 Mostly Cloudy BKN070 14 14 100% 75.16 0.0
05 00:55 SW 11 16.09 Fair CLR 14 14 22.8 14 100% 75.18 0.0
05 00:35 SW 13 16.09 A Few Clouds FEW065 FEW110 14 14 100% 75.16 0.0
05 00:15 SW 17 16.09 Mostly Cloudy FEW065 SCT090 BKN110 15 15 100% 75.16 0.0
04 23:55 SW 20 16.09 Overcast SCT065 BKN090 OVC110 15 15 100% 75.13 0.0
04 23:35 SW 20 16.09 Overcast BKN065 OVC090 15 15 100% 75.13 0.0
04 23:15 S 15 16.09 Overcast SCT085 OVC110 15 15 100% 75.11 0.0
04 22:55 SW 19 16.09 Mostly Cloudy FEW060 SCT085 BKN110 15 15 100% 75.08 0.0 0.08
04 22:35 SW 15 16.09 Overcast FEW045 BKN075 OVC085 15 15 100% 75.08 0.0
04 22:15 SW 24 G 43 6.44 Light Rain Fog/Mist FEW043 OVC075 15 15 100% 75.16 0.0
04 21:55 SW 28 16.09 Light Rain FEW060 OVC075 15 15 100% 75.18 0.0 0.25
04 21:35 SW 22 G 63 11.27 Thunderstorm in Vicinity Rain SCT046 SCT060 OVC075 15 15 100% 75.16 0.0
04 21:15 S 17 G 26 4.83 Light Rain Fog/Mist SCT023 BKN050 OVC075 15 15 100% 75.16 0.0
04 20:55 W 7 2.01 Thunderstorm Rain Fog/Mist BKN004 BKN019 OVC050 16 16 100% 75.16 0.0 0.64
04 20:35 N 24 G 33 6.44 Thunderstorm in Vicinity Rain Fog/Mist SCT036 BKN060 OVC070 17 17 100% 75.06 0.0
04 20:15 SW 7 16.09 Thunderstorm in Vicinity Rain SCT039 BKN060 OVC110 17 17 100% 75.06 0.0
04 19:55 SW 7 16.09 Mostly Cloudy FEW060 BKN110 17 17 100% 75.03 0.0
04 19:35 SW 6 16.09 Thunderstorm in Vicinity SCT060 BKN085 BKN110 18 15 83% 75.01 0.0
04 19:15 W 19 G 48 11.27 Thunderstorm Light Rain BKN060 BKN075 OVC100 18 14 78% 75.01 0.0
04 18:55 SW 26 G 44 12.87 Overcast SCT070 OVC100 23 9 26.5 22.7 41% 74.96 0.0
04 18:35 SW 30 G 52 12.87 Thunderstorm in Vicinity BKN110 23 10 44% 74.98 0.0
04 18:15 SW 33 G 48 16.09 A Few Clouds and Breezy FEW070 FEW100 23 10 44% 74.96 0.0
04 17:55 SW 37 G 56 16.09 A Few Clouds and Breezy FEW049 FEW060 FEW120 23 12 50% 74.98 0.0
04 17:35 SW 39 G 56 16.09 Partly Cloudy and Breezy FEW050 FEW090 SCT120 23 12 50% 74.98 0.0
04 17:15 SW 31 G 59 16.09 A Few Clouds FEW110 24 12 47% 25 74.98 0.0
04 16:55 SW 44 G 63 16.09 Partly Cloudy and Windy FEW090 SCT120 24 11 44% 25 74.98 0.0
04 16:35 SW 43 G 57 16.09 Mostly Cloudy and Windy FEW085 BKN110 24 11 44% 25 75.01 0.0
04 16:15 SW 35 G 54 16.09 Partly Cloudy and Breezy FEW070 FEW085 SCT120 25 9 36% 26 75.03 0.0
04 15:55 SW 37 G 56 16.09 Mostly Cloudy and Breezy SCT075 BKN095 BKN120 25 9 36% 26 75.01 0.0
04 15:35 SW 37 G 56 16.09 Mostly Cloudy and Breezy BKN075 BKN095 BKN110 25 9 36% 26 75.01 0.0
04 15:15 SW 39 G 50 16.09 Mostly Cloudy and Breezy SCT075 BKN095 BKN110 26 10 37% 26 75.01 0.0
04 14:55 SW 30 G 52 16.09 Mostly Cloudy SCT075 BKN095 26 10 37% 26 75.03 0.0
04 14:35 SW 26 G 46 16.09 A Few Clouds FEW075 FEW085 26 9 34% 26 75.03 0.0
04 14:15 SW 26 G 44 16.09 Partly Cloudy SCT075 SCT085 25 9 36% 26 75.06 0.0
04 13:55 W 24 G 30 16.09 Partly Cloudy FEW065 SCT080 25 11 42% 26 75.08 0.0
04 13:35 SW 24 G 44 16.09 Mostly Cloudy BKN055 BKN080 24 11 44% 25 75.11 0.0
04 13:15 SW 28 G 43 16.09 Mostly Cloudy SCT055 BKN070 24 11 44% 25 75.11 0.0
04 12:55 SW 30 G 48 16.09 Partly Cloudy SCT055 24 11 24.6 10.2 44% 25 75.13 0.0
04 12:35 SW 31 G 46 16.09 A Few Clouds FEW060 24 12 47% 25 75.16 0.0
04 12:15 SW 26 G 41 16.09 Fair CLR 23 11 47% 75.16 0.0
04 11:55 SW 26 G 43 16.09 Fair CLR 23 11 47% 75.18 0.0
04 11:35 SW 22 G 37 16.09 Fair CLR 22 11 50% 75.21 0.0
04 11:15 SW 22 G 35 16.09 Fair CLR 22 11 50% 75.23 0.0
04 10:55 SW 24 G 43 16.09 Fair CLR 21 10 50% 75.26 0.0
04 10:35 SW 28 G 37 16.09 Fair CLR 21 10 50% 75.29 0.0
04 10:15 SW 19 16.09 Fair CLR 20 10 53% 75.29 0.0
04 09:55 SW 20 16.09 Fair CLR 19 10 56% 75.31 0.0
04 09:35 SW 19 G 26 16.09 Fair CLR 18 10 60% 75.34 0.0
04 09:15 SW 22 16.09 Fair CLR 17 10 64% 75.36 0.0
04 08:55 SW 22 16.09 Fair CLR 16 10 68% 75.36 0.0
04 08:35 SW 17 G 26 16.09 Fair CLR 15 10 72% 75.39 0.0
04 08:15 SW 11 16.09 Fair CLR 14 13 94% 75.39 0.0
04 07:55 SW 17 16.09 Fair CLR 13 12 94% 75.39 0.0
04 07:35 SW 20 G 28 16.09 Fair CLR 12 12 100% 75.39 0.0
04 07:15 SW 15 16.09 Fair CLR 11 11 100% 75.39 0.0
04 06:55 SW 13 16.09 Fair CLR 10 10 11.2 8.1 100% 8 75.41 0.0
04 06:35 SW 15 16.09 Fair CLR 9 9 100% 7 75.41 0.0
04 06:15 SW 11 16.09 Fair CLR 8 8 100% 6 75.41 0.0
04 05:55 SW 13 16.09 Fair CLR 9 9 100% 7 75.41 0.0
04 05:35 SW 13 16.09 Fair CLR 8 8 100% 6 75.41 0.0
04 05:15 SW 13 16.09 Fair CLR 8 8 100% 6 75.41 0.0
04 04:55 SW 15 16.09 Fair CLR 9 9 100% 7 75.41 0.0
04 04:15 SW 15 16.09 Fair CLR 9 9 100% 7 75.41 0.0
04 03:55 SW 13 16.09 Fair CLR 9 9 100% 7 75.41 0.0
04 03:35 SW 13 16.09 Fair CLR 10 10 100% 8 75.41 0.0
04 03:15 SW 11 16.09 Fair CLR 10 10 100% 9 75.41 0.0
04 02:55 SW 13 16.09 Fair CLR 10 10 100% 8 75.41 0.0
04 02:35 SW 11 16.09 Fair CLR 10 9 94% 9 75.44 0.0
04 02:15 S 9 16.09 Fair CLR 10 8 88% 9 75.46 0.0
04 01:55 S 11 16.09 Fair CLR 11 8 82% 75.49 0.0
04 01:35 S 11 16.09 Fair CLR 11 7 77% 75.49 0.0
04 01:15 S 9 16.09 Fair CLR 11 7 77% 75.51 0.0
04 00:55 S 9 16.09 Fair CLR 11 7 15.9 10.8 77% 75.51 0.0
04 00:35 Vrbl 9 16.09 Fair CLR 11 7 77% 75.54 0.0
04 00:15 Vrbl 9 16.09 Fair CLR 11 7 77% 75.54 0.0
03 23:55 S 9 16.09 Fair CLR 11 7 77% 75.57 0.0
03 23:35 S 9 16.09 Fair CLR 11 7 77% 75.57 0.0
03 23:15 S 11 16.09 Fair CLR 11 7 77% 75.57 0.0
03 22:55 S 9 16.09 Fair CLR 12 7 72% 75.59 0.0
03 22:35 Vrbl 7 16.09 Fair CLR 12 7 72% 75.59 0.0
03 22:15 S 11 16.09 Fair CLR 12 7 72% 75.62 0.0
03 21:55 S 11 G 28 16.09 Fair CLR 12 7 72% 75.59 0.0
03 21:35 S 11 16.09 Fair CLR 12 7 72% 75.59 0.0
03 21:15 S 13 16.09 Fair CLR 13 7 67% 75.59 0.0
03 20:55 S 15 16.09 Fair CLR 13 7 67% 75.59 0.0
03 20:35 S 11 16.09 Fair CLR 13 6 63% 75.59 0.0
03 20:15 S 13 16.09 Fair CLR 14 6 59% 75.59 0.0
03 19:55 S 17 G 31 16.09 Fair CLR 14 6 59% 75.59 0.0
03 19:35 S 22 G 35 16.09 Fair CLR 15 6 55% 75.59 0.0
03 19:15 S 20 G 39 16.09 Fair CLR 16 5 48% 75.59 0.0
03 18:55 S 20 G 33 16.09 Fair CLR 16 6 16.6 9.6 52% 75.59 0.0
03 18:35 S 17 G 28 16.09 Fair CLR 16 5 48% 75.62 0.0
03 18:15 S 24 G 33 16.09 A Few Clouds FEW110 16 5 48% 75.62 0.0
03 17:55 SW 22 G 37 16.09 A Few Clouds FEW070 FEW120 16 6 52% 75.64 0.0
03 17:35 S 24 G 33 16.09 Overcast BKN070 OVC110 16 5 48% 75.67 0.0
03 17:15 S 20 G 30 16.09 Mostly Cloudy BKN070 BKN100 15 7 59% 75.69 0.0
03 16:55 S 19 G 31 16.09 Partly Cloudy SCT095 SCT120 13 8 72% 75.72 0.0
03 16:35 S 24 G 39 16.09 Mostly Cloudy BKN095 13 8 72% 75.72 0.0
03 16:15 S 19 G 31 16.09 Mostly Cloudy BKN095 13 8 72% 75.74 0.0
03 15:55 S 19 G 39 16.09 Mostly Cloudy BKN095 12 8 77% 75.74 0.0
03 15:35 S 20 G 31 16.09 Overcast OVC095 11 9 88% 75.77 0.0
03 15:15 S 19 G 26 16.09 Overcast OVC085 11 9 88% 75.82 0.0
03 14:55 S 24 G 35 16.09 Mostly Cloudy BKN085 10 9 94% 7 75.84 0.0
03 14:35 S 24 G 39 16.09 Mostly Cloudy SCT075 BKN095 11 9 88% 75.87 0.0
03 14:15 S 26 G 33 16.09 Overcast SCT055 OVC075 11 10 94% 75.92 0.0
03 13:35 SW 28 G 37 16.09 Light Rain SCT046 BKN055 BKN070 10 9 94% 7 76.02 0.0
03 13:15 SW 33 G 59 9.66 Light Rain Haze and Breezy SCT045 BKN060 BKN085 10 7 82% 7 76.05 0.0
03 12:55 SW 31 G 57 16.09 Mostly Cloudy SCT070 BKN095 13 4 14.8 10 55% 76.02 0.0
03 12:35 SW 30 G 50 16.09 Mostly Cloudy FEW046 SCT070 BKN095 13 4 55% 76.02 0.0
03 12:15 SW 33 G 52 16.09 Partly Cloudy and Breezy SCT046 14 4 51% 76.02 0.0
03 11:55 SW 35 G 54 16.09 Fair and Breezy CLR 15 3 45% 76.02 0.0
03 11:35 SW 24 G 50 16.09 Fair CLR 14 3 48% 76.05 0.0
03 11:15 SW 37 G 44 16.09 Fair and Breezy CLR 14 3 48% 76.05 0.0
03 10:55 SW 30 G 52 16.09 Fair CLR 14 3 48% 76.07 0.0
03 10:35 SW 31 G 50 16.09 Fair CLR 14 3 48% 76.07 0.0
03 10:15 SW 28 G 37 16.09 A Few Clouds FEW080 14 3 48% 76.1 0.0
03 09:55 SW 28 G 44 16.09 Overcast OVC080 13 3 51% 76.1 0.0
03 09:35 SW 30 G 43 16.09 Mostly Cloudy BKN080 12 3 54% 76.12 0.0
03 09:15 SW 30 G 46 16.09 Fair CLR 11 2 54% 76.12 0.0
03 08:55 SW 22 16.09 Fair CLR 11 2 54% 76.15 0.0
03 08:35 SW 22 G 39 16.09 Fair CLR 10 2 58% 7 76.15 0.0
03 08:15 SW 20 16.09 NULL NULL 10 1 54% 8 76.17 0.0
03 07:35 SW 15 16.09 NULL NULL 8 1 62% 6 76.17 0.0
03 07:15 SW 19 16.09 NULL NULL 7 1 66% 4 76.15 0.0
03 06:55 SW 19 16.09 NULL NULL 6 1 71% 3 76.15 0.0
03 06:35 SW 13 16.09 NULL NULL 5 1 76% 2 76.15 0.0
03 06:15 SW 13 16.09 NULL NULL 4 0 75% 1 76.15 0.0
03 05:55 SW 13 16.09 NULL NULL 4 0 75% 1 76.15 0.0
03 05:35 SW 11 16.09 NULL NULL 4 0 75% 2 76.15 0.0
03 05:15 SW 11 16.09 NULL NULL 4 0 75% 2 76.15 0.0
03 04:55 SW 13 16.09 NULL NULL 4 0 75% 1 76.15 0.0
Date Time (cdt) Wind (kph) Vis. (km) Weather Sky Cond. Air Dwpt Max. Min. Relative Humidity Wind Chill (°C) Heat Index (°C) altimeter (cm) sea level (mb) 1 hr 3 hr 6 hr
6 hour
Temperature (ºC) Pressure Precipitation (cm)